createdAt,value
2022-12-17T00:01:00.506Z,63.10
2022-12-17T00:06:50.431Z,62.72
2022-12-17T00:12:40.373Z,65.50
2022-12-17T00:18:30.127Z,63.30
2022-12-17T00:24:19.911Z,60.55
2022-12-17T00:30:20.405Z,55.28
2022-12-17T00:36:12.022Z,55.03
2022-12-17T00:42:01.710Z,54.35
2022-12-17T00:47:51.973Z,47.30
2022-12-17T00:53:42.333Z,53.40
2022-12-17T00:59:32.545Z,53.20
2022-12-17T01:05:23.071Z,53.22
2022-12-17T01:11:20.824Z,49.58
2022-12-17T01:17:10.704Z,46.25
2022-12-17T01:23:00.741Z,47.70
2022-12-17T01:28:50.321Z,49.95
2022-12-17T01:34:40.034Z,46.90
2022-12-17T01:40:30.042Z,47.20
2022-12-17T01:46:22.020Z,49.47
2022-12-17T01:52:12.543Z,47.35
2022-12-17T01:58:02.497Z,41.50
2022-12-17T02:03:52.359Z,42.38
2022-12-17T02:10:01.326Z,45.50
2022-12-17T02:16:05.444Z,47.63
2022-12-17T02:21:58.372Z,47.17
2022-12-17T02:27:49.102Z,43.40
2022-12-17T02:33:39.422Z,43.60
2022-12-17T02:39:29.192Z,34.38
2022-12-17T02:45:19.592Z,36.05
2022-12-17T02:51:11.276Z,40.53
2022-12-17T02:57:02.198Z,35.75
2022-12-17T03:02:52.228Z,38.83
2022-12-17T03:08:42.026Z,39.45
2022-12-17T03:14:31.957Z,36.25
2022-12-17T03:20:22.423Z,38.80
2022-12-17T03:26:12.241Z,40.88
2022-12-17T03:32:01.683Z,35.85
2022-12-17T03:37:51.902Z,33.70
2022-12-17T03:43:42.057Z,33.83
2022-12-17T03:49:31.799Z,33.63
2022-12-17T03:55:21.591Z,34.70
2022-12-17T04:01:11.431Z,33.85
2022-12-17T04:07:01.568Z,33.30
2022-12-17T04:12:51.777Z,31.42
2022-12-17T04:18:41.537Z,32.30
2022-12-17T04:24:31.490Z,30.90
2022-12-17T04:30:21.318Z,32.70
2022-12-17T04:36:11.137Z,29.95
2022-12-17T04:42:01.288Z,30.40
2022-12-17T04:47:50.735Z,29.08
2022-12-17T04:53:41.069Z,28.65
2022-12-17T04:59:30.994Z,28.00
2022-12-17T05:05:21.011Z,30.33
2022-12-17T05:11:11.055Z,29.15
2022-12-17T05:17:00.626Z,27.15
2022-12-17T05:22:53.912Z,25.42
2022-12-17T05:28:43.593Z,61.42
2022-12-17T05:34:33.677Z,45.78
2022-12-17T05:40:24.606Z,50.53
2022-12-17T05:46:19.021Z,50.22
2022-12-17T05:52:08.771Z,47.60
2022-12-17T05:57:59.062Z,48.00
2022-12-17T06:03:49.037Z,44.90
2022-12-17T06:09:38.987Z,44.22
2022-12-17T06:15:28.951Z,42.22
2022-12-17T06:21:18.800Z,34.47
2022-12-17T06:27:09.091Z,40.47
2022-12-17T06:32:58.926Z,40.15
2022-12-17T06:38:48.992Z,35.80
2022-12-17T06:44:39.052Z,37.50
2022-12-17T06:50:28.966Z,32.42
2022-12-17T06:56:19.104Z,35.22
2022-12-17T07:02:08.952Z,36.80
2022-12-17T07:07:58.950Z,31.73
2022-12-17T07:13:48.851Z,33.90
2022-12-17T07:19:38.746Z,29.98
2022-12-17T07:25:46.408Z,32.55
2022-12-17T07:31:36.449Z,34.15
2022-12-17T07:37:26.533Z,30.38
2022-12-17T07:43:16.569Z,28.40
2022-12-17T07:49:06.472Z,27.20
2022-12-17T07:54:56.486Z,27.92
2022-12-17T08:00:49.474Z,28.13
2022-12-17T08:06:39.382Z,22.70
2022-12-17T08:12:29.615Z,25.20
2022-12-17T08:18:26.097Z,27.35
2022-12-17T08:24:16.634Z,29.63
2022-12-17T08:30:06.796Z,25.25
2022-12-17T08:35:56.741Z,25.15
2022-12-17T08:41:52.627Z,24.83
2022-12-17T08:47:44.211Z,24.55
2022-12-17T08:53:35.224Z,25.63
2022-12-17T08:59:25.419Z,24.13
2022-12-17T09:05:15.432Z,27.30
2022-12-17T09:11:10.792Z,25.65
2022-12-17T09:17:00.942Z,19.52
2022-12-17T09:22:50.792Z,24.00
2022-12-17T09:28:40.818Z,22.30
2022-12-17T09:34:30.869Z,21.23
2022-12-17T09:40:21.010Z,19.77
2022-12-17T09:46:41.070Z,21.33
2022-12-17T09:52:42.296Z,20.85
2022-12-17T09:58:42.242Z,21.65
2022-12-17T10:04:40.698Z,18.92
2022-12-17T10:10:45.566Z,17.65
2022-12-17T10:16:47.325Z,19.05
2022-12-17T10:22:39.635Z,18.08
2022-12-17T10:28:35.203Z,16.90
2022-12-17T10:34:33.869Z,15.55
2022-12-17T10:40:34.032Z,19.25
2022-12-17T10:46:23.849Z,17.70
2022-12-17T10:52:23.495Z,17.75
2022-12-17T10:58:13.424Z,14.32
2022-12-17T11:04:09.504Z,18.27
2022-12-17T11:10:09.596Z,14.93
2022-12-17T11:16:03.691Z,13.70
2022-12-17T11:22:02.245Z,14.60
2022-12-17T11:27:54.646Z,15.80
2022-12-17T11:33:54.646Z,14.93
2022-12-17T11:40:01.436Z,13.82
2022-12-17T11:46:07.521Z,13.82
2022-12-17T11:52:04.025Z,13.75
2022-12-17T11:58:20.365Z,12.25
2022-12-17T12:04:28.387Z,14.65
2022-12-17T12:10:58.926Z,13.35
2022-12-17T12:16:57.997Z,15.25
2022-12-17T12:22:59.384Z,13.05
2022-12-17T12:29:24.880Z,12.23
2022-12-17T12:35:15.272Z,11.97
2022-12-17T12:41:17.847Z,12.98
2022-12-17T12:47:27.387Z,11.82
2022-12-17T12:53:17.813Z,13.60
2022-12-17T12:59:08.117Z,11.93
2022-12-17T13:04:57.919Z,10.25
2022-12-17T13:10:32.980Z,9.80
2022-12-17T13:16:43.700Z,13.32
2022-12-17T13:22:20.261Z,8.68
2022-12-17T13:27:55.003Z,10.48
2022-12-17T13:33:40.280Z,11.10
2022-12-17T13:39:30.102Z,10.30
2022-12-17T13:45:03.176Z,9.50
2022-12-17T13:50:35.897Z,11.10
2022-12-17T13:56:07.521Z,10.23
2022-12-17T14:01:49.878Z,12.10
2022-12-17T14:07:22.017Z,11.52
2022-12-17T14:13:13.446Z,10.95
2022-12-17T14:18:51.946Z,11.35
2022-12-17T14:24:27.331Z,10.13
2022-12-17T14:29:58.335Z,10.38
2022-12-17T14:35:32.472Z,9.88
2022-12-17T14:41:31.591Z,10.00
2022-12-17T14:47:20.417Z,9.27
2022-12-17T14:52:53.776Z,9.65
2022-12-17T14:58:26.655Z,10.93
2022-12-17T15:03:58.077Z,9.85
2022-12-17T15:09:29.464Z,9.02
2022-12-17T15:15:01.418Z,10.13
2022-12-17T15:20:32.599Z,10.38
2022-12-17T15:26:04.180Z,9.23
2022-12-17T15:31:35.764Z,7.72
2022-12-17T15:37:07.453Z,11.60
2022-12-17T15:43:02.938Z,10.00
2022-12-17T15:48:37.900Z,11.73
2022-12-17T15:54:09.414Z,12.18
2022-12-17T15:59:40.426Z,11.15
2022-12-17T16:05:12.648Z,8.57
2022-12-17T16:10:43.515Z,10.23
2022-12-17T16:16:14.846Z,10.05
2022-12-17T16:21:47.175Z,11.43
2022-12-17T16:27:19.398Z,10.50
2022-12-17T16:32:50.822Z,11.20
2022-12-17T16:38:22.358Z,12.07
2022-12-17T16:43:53.490Z,12.50
2022-12-17T16:49:24.781Z,10.27
2022-12-17T16:54:55.699Z,11.60
2022-12-17T17:00:27.146Z,11.43
2022-12-17T17:06:02.963Z,10.00
2022-12-17T17:11:33.929Z,12.05
2022-12-17T17:17:04.985Z,10.63
2022-12-17T17:22:36.025Z,10.98
2022-12-17T17:28:07.435Z,11.25
2022-12-17T17:33:40.450Z,12.98
2022-12-17T17:39:11.661Z,10.87
2022-12-17T17:44:42.818Z,9.95
2022-12-17T17:50:14.058Z,12.55
2022-12-17T17:55:44.970Z,10.20
2022-12-17T18:01:22.288Z,12.82
2022-12-17T18:07:23.669Z,10.82
2022-12-17T18:13:03.388Z,12.13
2022-12-17T18:18:34.880Z,8.85
2022-12-17T18:24:10.337Z,11.15
2022-12-17T18:29:41.379Z,10.85
2022-12-17T18:35:12.826Z,8.13
2022-12-17T18:40:43.768Z,12.13
2022-12-17T18:46:18.019Z,11.15
2022-12-17T18:51:54.442Z,13.20
2022-12-17T18:57:25.304Z,9.77
2022-12-17T19:02:56.695Z,10.52
2022-12-17T19:08:27.918Z,9.85
2022-12-17T19:13:59.641Z,9.35
2022-12-17T19:19:30.793Z,11.98
2022-12-17T19:25:01.644Z,11.88
2022-12-17T19:30:33.025Z,12.00
2022-12-17T19:36:07.036Z,12.48
2022-12-17T19:41:38.506Z,14.68
2022-12-17T19:47:10.833Z,12.68
2022-12-17T19:52:41.841Z,10.75
2022-12-17T19:58:13.016Z,11.32
2022-12-17T20:03:46.314Z,12.35
2022-12-17T20:09:17.692Z,11.60
2022-12-17T20:14:48.895Z,11.00
2022-12-17T20:20:20.097Z,14.20
2022-12-17T20:26:10.371Z,13.82
2022-12-17T20:31:48.010Z,13.13
2022-12-17T20:37:21.579Z,15.75
2022-12-17T20:42:52.600Z,12.32
2022-12-17T20:48:24.151Z,15.98
2022-12-17T20:53:56.844Z,12.50
2022-12-17T20:59:27.933Z,15.25
2022-12-17T21:04:59.321Z,14.38
2022-12-17T21:10:30.365Z,16.35
2022-12-17T21:16:07.182Z,12.23
2022-12-17T21:21:39.361Z,15.60
2022-12-17T21:27:14.729Z,14.85
2022-12-17T21:32:46.547Z,17.55
2022-12-17T21:38:17.835Z,12.95
2022-12-17T21:43:57.426Z,13.68
2022-12-17T21:49:28.804Z,15.15
2022-12-17T21:55:00.753Z,15.95
2022-12-17T22:00:32.174Z,12.73
2022-12-17T22:06:08.814Z,19.15
2022-12-17T22:11:39.922Z,16.60
2022-12-17T22:17:11.226Z,13.65
2022-12-17T22:22:42.692Z,13.20
2022-12-17T22:28:14.083Z,13.30
2022-12-17T22:34:16.494Z,30.70
2022-12-17T22:44:33.364Z,29.67
2022-12-17T22:45:32.483Z,29.00
2022-12-17T22:51:21.066Z,32.55
2022-12-17T22:57:34.648Z,33.40
2022-12-17T23:02:54.745Z,32.03
2022-12-17T23:08:26.157Z,37.63
2022-12-17T23:13:57.814Z,31.05
2022-12-17T23:19:28.703Z,30.20
2022-12-17T23:24:59.563Z,26.13
2022-12-17T23:30:31.051Z,25.65
2022-12-17T23:36:07.457Z,24.27
2022-12-17T23:41:38.804Z,25.02
2022-12-17T23:47:10.152Z,21.80
2022-12-17T23:52:41.539Z,23.83
2022-12-17T23:58:12.961Z,24.92
